createdAt,value
2019-02-28T00:00:11.501Z,5.50
2019-02-28T00:01:12.775Z,5.80
2019-02-28T00:02:11.530Z,5.40
2019-02-28T00:03:11.540Z,5.50
2019-02-28T00:04:11.556Z,5.50
2019-02-28T00:05:11.572Z,5.80
2019-02-28T00:06:12.675Z,5.60
2019-02-28T00:07:11.598Z,5.90
2019-02-28T00:08:11.612Z,6.00
2019-02-28T00:09:11.625Z,5.80
2019-02-28T00:10:11.641Z,6.10
2019-02-28T00:11:11.653Z,5.60
2019-02-28T00:12:13.642Z,5.70
2019-02-28T00:13:11.681Z,5.60
2019-02-28T00:14:11.695Z,5.90
2019-02-28T00:15:11.708Z,5.90
2019-02-28T00:16:11.722Z,5.70
2019-02-28T00:17:11.739Z,6.20
2019-02-28T00:18:15.327Z,5.90
2019-02-28T00:19:11.781Z,6.00
2019-02-28T00:20:11.779Z,6.10
2019-02-28T00:21:11.791Z,5.80
2019-02-28T00:22:14.687Z,6.30
2019-02-28T00:23:11.819Z,6.30
2019-02-28T00:24:11.830Z,5.90
2019-02-28T00:25:11.845Z,6.20
2019-02-28T00:26:12.372Z,6.20
2019-02-28T00:27:11.875Z,6.20
2019-02-28T00:28:11.889Z,6.50
2019-02-28T00:29:11.901Z,6.60
2019-02-28T00:30:11.912Z,6.40
2019-02-28T00:31:14.230Z,6.80
2019-02-28T00:32:11.941Z,6.70
2019-02-28T00:33:11.965Z,6.30
2019-02-28T00:34:11.970Z,6.10
2019-02-28T00:35:13.474Z,6.10
2019-02-28T00:36:11.997Z,6.30
2019-02-28T00:37:12.011Z,6.50
2019-02-28T00:38:12.023Z,6.40
2019-02-28T00:39:12.036Z,6.80
2019-02-28T00:40:12.050Z,6.50
2019-02-28T00:41:12.064Z,7.00
2019-02-28T00:42:12.079Z,6.10
2019-02-28T00:43:12.091Z,6.20
2019-02-28T00:44:12.104Z,5.80
2019-02-28T00:45:12.116Z,6.60
2019-02-28T00:46:12.145Z,6.40
2019-02-28T00:47:12.146Z,6.60
2019-02-28T00:48:12.162Z,7.20
2019-02-28T00:49:12.172Z,6.40
2019-02-28T00:50:12.186Z,6.80
2019-02-28T00:51:12.198Z,6.80
2019-02-28T00:52:12.211Z,6.90
2019-02-28T00:53:12.225Z,6.50
2019-02-28T00:54:12.238Z,6.90
2019-02-28T00:55:14.513Z,6.00
2019-02-28T00:56:12.267Z,6.60
2019-02-28T00:57:12.279Z,6.70
2019-02-28T00:58:12.293Z,6.90
2019-02-28T00:59:12.304Z,6.90
2019-02-28T01:00:12.319Z,6.60
2019-02-28T01:01:12.631Z,7.00
2019-02-28T01:02:12.352Z,6.40
2019-02-28T01:03:12.361Z,6.50
2019-02-28T01:04:12.372Z,6.30
2019-02-28T01:05:12.390Z,6.60
2019-02-28T01:06:12.399Z,6.50
2019-02-28T01:07:13.239Z,6.40
2019-02-28T01:08:12.427Z,7.30
2019-02-28T01:09:12.439Z,6.80
2019-02-28T01:10:12.452Z,6.30
2019-02-28T01:11:13.297Z,7.00
2019-02-28T01:12:18.708Z,6.80
2019-02-28T01:13:12.493Z,7.00
2019-02-28T01:14:12.506Z,6.80
2019-02-28T01:15:12.519Z,6.90
2019-02-28T01:16:12.531Z,6.50
2019-02-28T01:17:12.544Z,6.20
2019-02-28T01:18:12.558Z,6.70
2019-02-28T01:19:12.571Z,7.20
2019-02-28T01:20:16.236Z,6.60
2019-02-28T01:21:12.597Z,6.50
2019-02-28T01:22:12.611Z,6.30
2019-02-28T01:23:12.623Z,6.20
2019-02-28T01:24:12.637Z,6.60
2019-02-28T01:25:12.653Z,7.20
2019-02-28T01:26:12.666Z,6.50
2019-02-28T01:27:12.676Z,6.10
2019-02-28T01:28:12.691Z,7.20
2019-02-28T01:29:12.705Z,5.90
2019-02-28T01:30:12.716Z,6.10
2019-02-28T01:31:12.727Z,6.30
2019-02-28T01:32:15.186Z,6.50
2019-02-28T01:33:12.756Z,5.80
2019-02-28T01:34:12.771Z,6.10
2019-02-28T01:35:12.784Z,6.10
2019-02-28T01:36:15.499Z,5.80
2019-02-28T01:37:12.809Z,5.60
2019-02-28T01:38:12.822Z,5.90
2019-02-28T01:39:12.833Z,6.50
2019-02-28T01:40:12.846Z,5.50
2019-02-28T01:41:12.860Z,5.40
2019-02-28T01:42:12.875Z,5.80
2019-02-28T01:43:12.887Z,5.90
2019-02-28T01:44:12.900Z,5.70
2019-02-28T01:45:12.916Z,5.70
2019-02-28T01:46:14.401Z,5.60
2019-02-28T01:47:13.012Z,5.90
2019-02-28T01:48:13.037Z,5.60
2019-02-28T01:49:13.009Z,5.70
2019-02-28T01:50:13.019Z,5.40
2019-02-28T01:51:13.096Z,5.40
2019-02-28T01:52:13.069Z,5.30
2019-02-28T01:53:13.070Z,5.20
2019-02-28T01:54:13.078Z,4.80
2019-02-28T01:55:13.066Z,5.50
2019-02-28T01:56:13.079Z,5.80
2019-02-28T01:57:13.087Z,6.00
2019-02-28T01:58:16.588Z,5.80
2019-02-28T01:59:13.101Z,5.30
2019-02-28T02:00:13.118Z,5.20
2019-02-28T02:01:13.132Z,5.40
2019-02-28T02:02:13.140Z,5.60
2019-02-28T02:03:13.155Z,5.20
2019-02-28T02:04:13.218Z,5.90
2019-02-28T02:05:13.186Z,5.30
2019-02-28T02:06:13.199Z,5.80
2019-02-28T02:07:13.213Z,5.10
2019-02-28T02:08:13.224Z,5.70
2019-02-28T02:09:13.240Z,5.50
2019-02-28T02:10:13.254Z,5.20
2019-02-28T02:11:13.268Z,5.90
2019-02-28T02:12:13.281Z,5.50
2019-02-28T02:13:13.296Z,6.10
2019-02-28T02:14:13.310Z,5.40
2019-02-28T02:15:13.325Z,5.50
2019-02-28T02:16:13.339Z,5.60
2019-02-28T02:17:13.354Z,5.70
2019-02-28T02:18:13.368Z,6.90
2019-02-28T02:19:17.492Z,5.40
2019-02-28T02:20:13.397Z,5.80
2019-02-28T02:21:13.410Z,5.50
2019-02-28T02:22:13.426Z,5.90
2019-02-28T02:23:17.895Z,5.80
2019-02-28T02:24:13.454Z,5.30
2019-02-28T02:25:13.467Z,5.30
2019-02-28T02:26:13.484Z,5.80
2019-02-28T02:27:16.176Z,5.40
2019-02-28T02:28:13.509Z,5.40
2019-02-28T02:29:13.523Z,5.70
2019-02-28T02:30:15.058Z,6.10
2019-02-28T02:31:13.556Z,5.90
2019-02-28T02:32:13.577Z,5.50
2019-02-28T02:33:14.643Z,5.70
2019-02-28T02:34:13.599Z,5.60
2019-02-28T02:35:13.610Z,5.40
2019-02-28T02:36:16.341Z,5.40
2019-02-28T02:37:13.640Z,6.20
2019-02-28T02:38:13.656Z,5.60
2019-02-28T02:39:17.612Z,6.30
2019-02-28T02:40:13.696Z,5.70
2019-02-28T02:41:13.700Z,5.40
2019-02-28T02:42:13.715Z,5.70
2019-02-28T02:43:13.731Z,6.00
2019-02-28T02:44:13.745Z,5.50
2019-02-28T02:45:13.761Z,5.80
2019-02-28T02:46:19.678Z,5.80
2019-02-28T02:47:13.804Z,5.80
2019-02-28T02:48:13.803Z,6.60
2019-02-28T02:49:18.504Z,6.20
2019-02-28T02:50:13.834Z,6.30
2019-02-28T02:51:13.854Z,5.20
2019-02-28T02:52:13.861Z,6.00
2019-02-28T02:53:13.906Z,6.40
2019-02-28T02:54:18.150Z,6.30
2019-02-28T02:55:13.910Z,5.70
2019-02-28T02:56:13.928Z,6.10
2019-02-28T02:57:14.328Z,6.30
2019-02-28T02:58:13.952Z,6.20
2019-02-28T02:59:13.965Z,6.00
2019-02-28T03:00:15.161Z,6.30
2019-02-28T03:01:13.996Z,5.90
2019-02-28T03:02:14.006Z,6.60
2019-02-28T03:03:14.023Z,6.40
2019-02-28T03:04:21.676Z,6.90
2019-02-28T03:05:14.057Z,6.20
2019-02-28T03:06:14.473Z,6.20
2019-02-28T03:07:14.082Z,6.70
2019-02-28T03:08:14.098Z,7.50
2019-02-28T03:09:14.113Z,6.60
2019-02-28T03:10:17.528Z,6.80
2019-02-28T03:11:14.143Z,6.70
2019-02-28T03:12:14.157Z,6.10
2019-02-28T03:13:14.175Z,6.40
2019-02-28T03:14:16.341Z,6.00
2019-02-28T03:15:14.202Z,6.50
2019-02-28T03:16:14.215Z,6.50
2019-02-28T03:17:14.240Z,6.50
2019-02-28T03:18:14.247Z,7.10
2019-02-28T03:19:14.261Z,6.70
2019-02-28T03:20:14.283Z,7.00
2019-02-28T03:21:15.094Z,6.70
2019-02-28T03:22:14.305Z,6.40
2019-02-28T03:23:14.327Z,6.90
2019-02-28T03:24:15.245Z,7.20
2019-02-28T03:25:14.349Z,7.30
2019-02-28T03:26:14.365Z,6.30
2019-02-28T03:27:18.611Z,7.10
2019-02-28T03:28:14.394Z,6.70
2019-02-28T03:29:14.424Z,6.90
2019-02-28T03:30:26.045Z,7.20
2019-02-28T03:31:15.696Z,6.80
2019-02-28T03:32:14.454Z,7.30
2019-02-28T03:33:24.188Z,7.00
2019-02-28T03:34:14.497Z,7.50
2019-02-28T03:35:14.507Z,7.10
2019-02-28T03:36:15.634Z,7.90
2019-02-28T03:37:14.527Z,7.90
2019-02-28T03:38:14.542Z,7.20
2019-02-28T03:39:14.573Z,7.30
2019-02-28T03:40:14.577Z,7.40
2019-02-28T03:41:17.660Z,7.70
2019-02-28T03:42:14.603Z,7.70
2019-02-28T03:43:14.616Z,8.20
2019-02-28T03:44:19.711Z,7.90
2019-02-28T03:45:14.680Z,8.00
2019-02-28T03:46:14.666Z,7.80
2019-02-28T03:47:14.676Z,8.00
2019-02-28T03:48:14.689Z,8.60
2019-02-28T03:49:14.722Z,7.80
2019-02-28T03:50:14.725Z,7.50
2019-02-28T03:51:14.732Z,8.30
2019-02-28T03:52:14.842Z,8.40
2019-02-28T03:53:19.420Z,7.90
2019-02-28T03:54:14.864Z,8.20
2019-02-28T03:55:14.871Z,8.50
2019-02-28T03:56:15.942Z,8.20
2019-02-28T03:57:14.856Z,8.60
2019-02-28T03:58:14.861Z,9.00
2019-02-28T03:59:18.810Z,8.30
2019-02-28T04:00:14.924Z,8.30
2019-02-28T04:01:14.926Z,8.70
2019-02-28T04:02:21.054Z,9.10
2019-02-28T04:03:14.911Z,9.20
2019-02-28T04:04:14.923Z,9.40
2019-02-28T04:05:14.944Z,8.50
2019-02-28T04:06:15.205Z,8.50
2019-02-28T04:07:16.028Z,9.20
2019-02-28T04:08:14.986Z,8.00
2019-02-28T04:09:15.002Z,8.90
2019-02-28T04:10:16.817Z,8.90
2019-02-28T04:11:15.028Z,9.40
2019-02-28T04:12:15.042Z,8.70
2019-02-28T04:13:19.249Z,9.30
2019-02-28T04:14:15.076Z,8.60
2019-02-28T04:15:15.091Z,8.70
2019-02-28T04:16:15.102Z,9.30
2019-02-28T04:17:15.120Z,9.00
2019-02-28T04:18:15.140Z,9.30
2019-02-28T04:19:21.323Z,9.00
2019-02-28T04:20:15.160Z,9.10
2019-02-28T04:21:15.488Z,9.20
2019-02-28T04:22:15.190Z,9.30
2019-02-28T04:23:15.207Z,9.70
2019-02-28T04:24:15.223Z,9.30
2019-02-28T04:25:15.239Z,9.40
2019-02-28T04:26:15.252Z,9.70
2019-02-28T04:27:15.264Z,9.20
2019-02-28T04:28:18.599Z,9.60
2019-02-28T04:29:15.294Z,9.40
2019-02-28T04:30:15.320Z,9.60
2019-02-28T04:31:19.136Z,9.80
2019-02-28T04:32:15.337Z,9.10
2019-02-28T04:33:15.352Z,9.90
2019-02-28T04:34:15.367Z,9.70
2019-02-28T04:35:15.397Z,9.80
2019-02-28T04:36:15.405Z,9.00
2019-02-28T04:37:15.411Z,9.70
2019-02-28T04:38:20.120Z,9.60
2019-02-28T04:39:15.439Z,10.10
2019-02-28T04:40:15.454Z,9.80
2019-02-28T04:41:15.469Z,10.30
2019-02-28T04:42:15.482Z,9.50
2019-02-28T04:43:15.515Z,10.40
2019-02-28T04:44:18.229Z,9.80
2019-02-28T04:45:15.527Z,10.20
2019-02-28T04:46:15.542Z,11.20
2019-02-28T04:47:15.556Z,10.20
2019-02-28T04:48:15.569Z,10.90
2019-02-28T04:49:15.586Z,10.50
2019-02-28T04:50:15.599Z,10.60
2019-02-28T04:51:15.615Z,10.70
2019-02-28T04:52:15.627Z,10.60
2019-02-28T04:53:18.931Z,11.60
2019-02-28T04:54:15.657Z,11.00
2019-02-28T04:55:15.673Z,10.90
2019-02-28T04:56:15.687Z,10.80
2019-02-28T04:57:17.429Z,11.30
2019-02-28T04:58:15.714Z,11.80
2019-02-28T04:59:15.745Z,11.60
2019-02-28T05:00:15.746Z,11.00
2019-02-28T05:01:15.760Z,11.50
2019-02-28T05:02:19.680Z,12.10
2019-02-28T05:03:15.789Z,11.90
2019-02-28T05:04:15.800Z,11.00
2019-02-28T05:05:15.815Z,12.20
2019-02-28T05:06:18.353Z,11.30
2019-02-28T05:07:15.848Z,11.70
2019-02-28T05:08:15.856Z,11.50
2019-02-28T05:09:15.870Z,12.10
2019-02-28T05:10:15.886Z,11.80
2019-02-28T05:11:15.901Z,11.80
2019-02-28T05:12:15.915Z,12.50
2019-02-28T05:13:15.929Z,12.10
2019-02-28T05:14:15.993Z,12.10
2019-02-28T05:15:15.959Z,11.80
2019-02-28T05:16:15.971Z,11.80
2019-02-28T05:17:15.986Z,12.20
2019-02-28T05:18:16.005Z,11.70
2019-02-28T05:19:16.015Z,12.40
2019-02-28T05:20:16.032Z,11.80
2019-02-28T05:21:16.608Z,11.80
2019-02-28T05:22:16.058Z,12.00
2019-02-28T05:23:16.072Z,12.20
2019-02-28T05:24:16.088Z,12.50
2019-02-28T05:25:18.709Z,11.90
2019-02-28T05:26:16.115Z,12.50
2019-02-28T05:27:16.127Z,12.60
2019-02-28T05:28:16.149Z,11.90
2019-02-28T05:29:16.158Z,11.80
2019-02-28T05:30:19.379Z,13.40
2019-02-28T05:31:16.205Z,12.20
2019-02-28T05:32:16.200Z,12.10
2019-02-28T05:33:16.218Z,13.30
2019-02-28T05:34:16.789Z,12.30
2019-02-28T05:35:16.240Z,12.60
2019-02-28T05:36:16.256Z,12.80
2019-02-28T05:37:16.270Z,11.80
2019-02-28T05:38:20.724Z,13.70
2019-02-28T05:39:16.299Z,13.00
2019-02-28T05:40:16.313Z,13.70
2019-02-28T05:41:16.330Z,13.00
2019-02-28T05:42:16.341Z,13.70
2019-02-28T05:43:16.355Z,13.50
2019-02-28T05:44:16.370Z,13.70
2019-02-28T05:45:16.385Z,13.00
2019-02-28T05:46:16.402Z,13.10
2019-02-28T05:47:16.413Z,13.10
2019-02-28T05:48:16.429Z,13.20
2019-02-28T05:49:16.439Z,14.50
2019-02-28T05:50:17.299Z,13.90
2019-02-28T05:51:16.470Z,14.00
2019-02-28T05:52:16.485Z,14.10
2019-02-28T05:53:16.495Z,14.10
2019-02-28T05:54:17.212Z,14.30
2019-02-28T05:55:16.526Z,15.30
2019-02-28T05:56:16.539Z,14.30
2019-02-28T05:57:16.555Z,14.90
2019-02-28T05:58:18.404Z,14.60
2019-02-28T05:59:16.582Z,15.10
2019-02-28T06:00:16.598Z,14.70
2019-02-28T06:01:16.649Z,15.10
2019-02-28T06:02:19.004Z,15.00
2019-02-28T06:03:16.705Z,15.20
2019-02-28T06:04:16.705Z,16.00
2019-02-28T06:05:16.703Z,15.30
2019-02-28T06:06:17.278Z,15.90
2019-02-28T06:07:16.755Z,14.50
2019-02-28T06:08:16.760Z,15.90
2019-02-28T06:09:16.757Z,15.10
2019-02-28T06:10:16.765Z,16.30
2019-02-28T06:11:16.754Z,15.00
2019-02-28T06:12:16.768Z,15.30
2019-02-28T06:13:18.231Z,15.40
2019-02-28T06:14:16.793Z,15.80
2019-02-28T06:15:16.805Z,15.70
2019-02-28T06:16:16.818Z,15.60
2019-02-28T06:17:17.315Z,16.40
2019-02-28T06:18:16.849Z,16.90
2019-02-28T06:19:16.862Z,16.50
2019-02-28T06:20:17.931Z,16.60
2019-02-28T06:21:16.893Z,16.30
2019-02-28T06:22:16.904Z,16.80
2019-02-28T06:23:16.917Z,16.50
2019-02-28T06:24:16.936Z,17.20
2019-02-28T06:25:23.805Z,15.40
2019-02-28T06:26:16.963Z,17.90
2019-02-28T06:27:16.980Z,16.50
2019-02-28T06:28:16.987Z,15.80
2019-02-28T06:29:17.005Z,16.50
2019-02-28T06:30:17.021Z,17.30
2019-02-28T06:31:17.030Z,17.50
2019-02-28T06:32:17.049Z,17.70
2019-02-28T06:33:17.061Z,17.10
2019-02-28T06:34:17.077Z,18.40
2019-02-28T06:35:20.251Z,16.90
2019-02-28T06:36:17.107Z,17.70
2019-02-28T06:37:17.123Z,18.20
2019-02-28T06:38:19.198Z,18.50
2019-02-28T06:39:17.548Z,18.60
2019-02-28T06:40:17.159Z,18.70
2019-02-28T06:41:17.177Z,19.30
2019-02-28T06:42:17.184Z,18.00
2019-02-28T06:43:18.830Z,17.80
2019-02-28T06:44:17.215Z,18.80
2019-02-28T06:45:17.232Z,18.80
2019-02-28T06:46:17.248Z,18.50
2019-02-28T06:47:17.262Z,18.90
2019-02-28T06:48:17.272Z,19.20
2019-02-28T06:49:17.287Z,19.80
2019-02-28T06:50:17.305Z,19.70
2019-02-28T06:51:17.606Z,19.90
2019-02-28T06:52:17.328Z,20.00
2019-02-28T06:53:17.343Z,19.30
2019-02-28T06:54:17.357Z,19.20
2019-02-28T06:55:17.371Z,21.10
2019-02-28T06:56:22.053Z,19.20
2019-02-28T06:57:17.399Z,20.50
2019-02-28T06:58:17.415Z,19.80
2019-02-28T06:59:17.427Z,20.40
2019-02-28T07:00:17.441Z,20.20
2019-02-28T07:01:19.232Z,19.30
2019-02-28T07:02:17.472Z,20.40
2019-02-28T07:03:17.485Z,20.20
2019-02-28T07:04:17.499Z,20.10
2019-02-28T07:05:17.515Z,20.80
2019-02-28T07:06:17.529Z,19.20
2019-02-28T07:07:17.542Z,20.80
2019-02-28T07:08:20.753Z,20.10
2019-02-28T07:09:17.572Z,20.10
2019-02-28T07:10:17.589Z,21.10
2019-02-28T07:11:19.839Z,19.60
2019-02-28T07:12:17.615Z,20.70
2019-02-28T07:13:17.629Z,19.80
2019-02-28T07:14:17.675Z,21.40
2019-02-28T07:15:23.770Z,20.50
2019-02-28T07:16:17.677Z,21.40
2019-02-28T07:17:17.688Z,20.50
2019-02-28T07:18:18.899Z,21.80
2019-02-28T07:19:17.715Z,21.40
2019-02-28T07:20:17.732Z,22.00
2019-02-28T07:21:17.747Z,22.10
2019-02-28T07:22:19.719Z,21.50
2019-02-28T07:23:17.783Z,21.90
2019-02-28T07:24:17.793Z,20.90
2019-02-28T07:25:17.806Z,21.60
2019-02-28T07:26:18.763Z,21.80
2019-02-28T07:27:17.835Z,22.10
2019-02-28T07:28:17.848Z,21.50
2019-02-28T07:29:17.863Z,21.00
2019-02-28T07:30:19.117Z,21.80
2019-02-28T07:31:17.897Z,22.10
2019-02-28T07:32:17.907Z,22.30
2019-02-28T07:33:17.927Z,22.30
2019-02-28T07:34:21.985Z,22.00
2019-02-28T07:35:17.950Z,21.80
2019-02-28T07:36:17.967Z,21.50
2019-02-28T07:37:19.011Z,23.40
2019-02-28T07:38:18.002Z,22.30
2019-02-28T07:39:18.010Z,22.30
2019-02-28T07:40:18.026Z,22.10
2019-02-28T07:41:18.040Z,22.90
2019-02-28T07:42:18.056Z,22.40
2019-02-28T07:43:18.068Z,22.20
2019-02-28T07:44:21.467Z,22.70
2019-02-28T07:45:18.102Z,23.20
2019-02-28T07:46:18.114Z,22.10
2019-02-28T07:47:18.447Z,22.90
2019-02-28T07:48:18.162Z,22.70
2019-02-28T07:49:18.159Z,24.50
2019-02-28T07:50:18.177Z,22.10
2019-02-28T07:51:18.519Z,24.20
2019-02-28T07:52:18.208Z,22.70
2019-02-28T07:53:18.219Z,23.50
2019-02-28T07:54:20.326Z,23.30
2019-02-28T07:55:18.249Z,24.10
2019-02-28T07:56:18.264Z,23.50
2019-02-28T07:57:18.279Z,23.60
2019-02-28T07:58:18.294Z,23.40
2019-02-28T07:59:18.309Z,23.30
2019-02-28T08:00:18.659Z,24.60
2019-02-28T08:01:18.459Z,24.50
2019-02-28T08:02:18.355Z,22.70
2019-02-28T08:03:18.371Z,23.50
2019-02-28T08:04:19.198Z,24.00
2019-02-28T08:05:18.402Z,24.20
2019-02-28T08:06:18.437Z,24.30
2019-02-28T08:07:18.431Z,25.10
2019-02-28T08:08:18.446Z,24.80
2019-02-28T08:09:18.549Z,23.60
2019-02-28T08:10:18.550Z,24.30
2019-02-28T08:11:19.923Z,25.10
2019-02-28T08:12:18.547Z,24.70
2019-02-28T08:13:18.557Z,24.40
2019-02-28T08:14:18.600Z,24.70
2019-02-28T08:15:22.352Z,23.90
2019-02-28T08:16:18.591Z,23.80
2019-02-28T08:17:18.602Z,24.10
2019-02-28T08:18:18.915Z,24.60
2019-02-28T08:19:18.615Z,23.70
2019-02-28T08:20:18.633Z,25.00
2019-02-28T08:21:18.649Z,25.20
2019-02-28T08:22:23.370Z,25.10
2019-02-28T08:23:18.678Z,25.70
2019-02-28T08:24:18.693Z,24.90
2019-02-28T08:25:18.709Z,25.00
2019-02-28T08:26:18.850Z,25.80
2019-02-28T08:27:18.741Z,26.00
2019-02-28T08:28:18.755Z,25.30
2019-02-28T08:29:18.772Z,25.20
2019-02-28T08:30:19.593Z,25.80
2019-02-28T08:31:18.805Z,26.10
2019-02-28T08:32:18.822Z,27.60
2019-02-28T08:33:18.834Z,25.70
2019-02-28T08:34:20.700Z,26.80
2019-02-28T08:35:18.866Z,26.10
2019-02-28T08:36:18.884Z,25.50
2019-02-28T08:37:19.271Z,25.90
2019-02-28T08:38:18.916Z,26.60
2019-02-28T08:39:18.935Z,26.90
2019-02-28T08:40:18.975Z,26.20
2019-02-28T08:41:18.967Z,25.80
2019-02-28T08:42:18.975Z,26.50
2019-02-28T08:43:26.891Z,26.60
2019-02-28T08:44:22.798Z,27.10
2019-02-28T08:45:19.028Z,26.50
2019-02-28T08:46:19.050Z,27.40
2019-02-28T08:47:21.060Z,27.70
2019-02-28T08:48:19.074Z,27.40
2019-02-28T08:49:19.091Z,27.50
2019-02-28T08:50:20.645Z,27.00
2019-02-28T08:51:19.120Z,26.60
2019-02-28T08:52:19.140Z,27.10
2019-02-28T08:53:19.693Z,26.00
2019-02-28T08:54:19.171Z,25.80
2019-02-28T08:55:27.859Z,28.50
2019-02-28T08:56:19.202Z,27.50
2019-02-28T08:57:22.029Z,28.50
2019-02-28T08:58:19.235Z,27.00
2019-02-28T08:59:22.358Z,27.20
2019-02-28T09:00:19.264Z,27.00
2019-02-28T09:01:19.287Z,26.90
2019-02-28T09:02:19.300Z,28.20
2019-02-28T09:03:19.315Z,28.40
2019-02-28T09:04:19.332Z,27.50
2019-02-28T09:05:22.218Z,28.00
2019-02-28T09:06:19.365Z,27.10
2019-02-28T09:07:19.379Z,28.50
2019-02-28T09:08:22.494Z,28.10
2019-02-28T09:09:19.412Z,27.80
2019-02-28T09:10:19.431Z,28.40
2019-02-28T09:11:20.993Z,28.30
2019-02-28T09:12:19.464Z,26.60
2019-02-28T09:13:19.479Z,27.60
2019-02-28T09:14:19.512Z,29.20
2019-02-28T09:15:19.512Z,27.10
2019-02-28T09:16:19.529Z,29.30
2019-02-28T09:17:19.544Z,28.10
2019-02-28T09:18:19.561Z,28.10
2019-02-28T09:19:19.576Z,27.60
2019-02-28T09:20:19.595Z,27.70
2019-02-28T09:21:19.613Z,29.30
2019-02-28T09:22:19.629Z,28.30
2019-02-28T09:23:19.644Z,27.20
2019-02-28T09:24:19.665Z,27.20
2019-02-28T09:25:22.067Z,27.00
2019-02-28T09:26:19.694Z,27.10
2019-02-28T09:27:19.711Z,28.20
2019-02-28T09:28:20.850Z,27.60
2019-02-28T09:29:21.319Z,28.20
2019-02-28T09:30:19.763Z,27.70
2019-02-28T09:31:19.779Z,27.00
2019-02-28T09:32:19.798Z,27.20
2019-02-28T09:33:23.388Z,27.60
2019-02-28T09:34:19.834Z,28.10
2019-02-28T09:35:19.847Z,28.50
2019-02-28T09:36:20.818Z,28.20
2019-02-28T09:37:19.882Z,28.80
2019-02-28T09:38:19.900Z,27.20
2019-02-28T09:39:20.320Z,26.50
2019-02-28T09:40:19.934Z,26.60
2019-02-28T09:41:19.950Z,27.40
2019-02-28T09:42:19.969Z,27.60
2019-02-28T09:43:19.990Z,28.20
2019-02-28T09:44:20.007Z,27.70
2019-02-28T09:45:20.021Z,27.40
2019-02-28T09:46:20.052Z,27.30
2019-02-28T09:47:20.054Z,26.70
2019-02-28T09:48:20.072Z,27.10
2019-02-28T09:49:20.091Z,26.10
2019-02-28T09:50:22.545Z,26.50
2019-02-28T09:51:20.126Z,27.90
2019-02-28T09:52:20.145Z,25.90
2019-02-28T09:53:20.158Z,27.20
2019-02-28T09:54:21.371Z,26.90
2019-02-28T09:55:20.197Z,26.10
2019-02-28T09:56:20.218Z,26.80
2019-02-28T09:57:20.229Z,26.00
2019-02-28T09:58:20.247Z,26.30
2019-02-28T09:59:20.266Z,26.30
2019-02-28T10:00:20.282Z,26.00
2019-02-28T10:01:21.232Z,26.10
2019-02-28T10:02:20.333Z,24.90
2019-02-28T10:03:20.406Z,26.00
2019-02-28T10:04:20.406Z,26.10
2019-02-28T10:05:20.414Z,25.90
2019-02-28T10:06:20.468Z,25.20
2019-02-28T10:07:23.311Z,27.10
2019-02-28T10:08:21.737Z,26.00
2019-02-28T10:09:20.469Z,26.90
2019-02-28T10:10:20.807Z,26.10
2019-02-28T10:11:21.752Z,25.30
2019-02-28T10:12:20.496Z,26.60
2019-02-28T10:13:20.513Z,25.80
2019-02-28T10:14:20.531Z,26.50
2019-02-28T10:15:20.548Z,26.40
2019-02-28T10:16:20.565Z,26.50
2019-02-28T10:17:22.621Z,25.20
2019-02-28T10:18:20.603Z,26.60
2019-02-28T10:19:20.620Z,25.50
2019-02-28T10:20:26.271Z,26.50
2019-02-28T10:21:20.658Z,25.10
2019-02-28T10:22:20.676Z,25.70
2019-02-28T10:23:21.521Z,26.50
2019-02-28T10:24:20.712Z,26.70
2019-02-28T10:25:20.731Z,25.00
2019-02-28T10:26:20.748Z,25.60
2019-02-28T10:27:23.251Z,23.30
2019-02-28T10:28:20.782Z,25.00
2019-02-28T10:29:20.800Z,24.80
2019-02-28T10:30:30.805Z,24.80
2019-02-28T10:31:22.884Z,25.70
2019-02-28T10:32:20.858Z,24.70
2019-02-28T10:33:20.880Z,25.70
2019-02-28T10:34:23.534Z,25.30
2019-02-28T10:35:20.913Z,25.30
2019-02-28T10:36:20.929Z,25.30
2019-02-28T10:37:22.884Z,24.40
2019-02-28T10:38:20.966Z,25.40
2019-02-28T10:39:20.985Z,25.10
2019-02-28T10:40:21.003Z,25.40
2019-02-28T10:41:21.025Z,26.10
2019-02-28T10:42:21.042Z,26.20
2019-02-28T10:43:21.059Z,24.00
2019-02-28T10:44:21.076Z,25.00
2019-02-28T10:45:21.096Z,24.70
2019-02-28T10:46:21.115Z,25.70
2019-02-28T10:47:21.131Z,25.40
2019-02-28T10:48:21.150Z,26.80
2019-02-28T10:49:24.273Z,26.00
2019-02-28T10:50:21.189Z,25.70
2019-02-28T10:51:21.228Z,26.20
2019-02-28T10:52:23.451Z,26.00
2019-02-28T10:53:21.240Z,26.30
2019-02-28T10:54:21.258Z,25.70
2019-02-28T10:55:22.615Z,26.40
2019-02-28T10:56:21.294Z,26.80
2019-02-28T10:57:21.313Z,25.70
2019-02-28T10:58:21.332Z,25.90
2019-02-28T10:59:23.990Z,26.00
2019-02-28T11:00:21.368Z,25.40
2019-02-28T11:01:21.386Z,26.70
2019-02-28T11:02:21.405Z,26.70
2019-02-28T11:03:21.423Z,25.30
2019-02-28T11:04:21.440Z,26.20
2019-02-28T11:05:21.464Z,25.50
2019-02-28T11:06:21.479Z,26.20
2019-02-28T11:07:21.497Z,25.50
2019-02-28T11:08:21.516Z,26.00
2019-02-28T11:09:24.520Z,25.10
2019-02-28T11:10:21.553Z,26.30
2019-02-28T11:11:21.570Z,25.30
2019-02-28T11:12:23.749Z,25.50
2019-02-28T11:13:21.611Z,25.20
2019-02-28T11:14:21.628Z,25.30
2019-02-28T11:15:21.645Z,24.20
2019-02-28T11:16:23.572Z,23.70
2019-02-28T11:17:21.684Z,24.90
2019-02-28T11:18:21.701Z,24.80
2019-02-28T11:19:21.718Z,24.00
2019-02-28T11:20:22.366Z,25.00
2019-02-28T11:21:21.759Z,23.80
2019-02-28T11:22:21.776Z,24.50
2019-02-28T11:23:21.794Z,24.20
2019-02-28T11:24:23.718Z,24.00
2019-02-28T11:25:21.834Z,23.60
2019-02-28T11:26:21.853Z,23.30
2019-02-28T11:27:22.944Z,24.00
2019-02-28T11:28:21.889Z,24.10
2019-02-28T11:29:21.910Z,23.70
2019-02-28T11:30:21.929Z,23.10
2019-02-28T11:31:21.947Z,23.20
2019-02-28T11:32:21.968Z,22.80
2019-02-28T11:33:22.867Z,22.70
2019-02-28T11:34:22.005Z,23.90
2019-02-28T11:35:23.213Z,23.10
2019-02-28T11:36:22.043Z,23.20
2019-02-28T11:37:22.060Z,22.30
2019-02-28T11:38:22.083Z,22.80
2019-02-28T11:39:22.097Z,21.90
2019-02-28T11:40:22.115Z,21.60
2019-02-28T11:41:22.140Z,22.70
2019-02-28T11:42:24.591Z,23.00
2019-02-28T11:43:22.173Z,22.80
2019-02-28T11:44:22.285Z,21.80
2019-02-28T11:45:25.366Z,23.10
2019-02-28T11:46:22.280Z,23.60
2019-02-28T11:47:23.345Z,22.50
2019-02-28T11:48:22.346Z,24.70
2019-02-28T11:49:22.359Z,21.80
2019-02-28T11:50:22.339Z,23.00
2019-02-28T11:51:22.352Z,21.60
2019-02-28T11:52:24.543Z,23.40
2019-02-28T11:53:22.366Z,21.80
2019-02-28T11:54:22.383Z,22.80
2019-02-28T11:55:22.403Z,23.00
2019-02-28T11:56:22.441Z,22.80
2019-02-28T11:57:22.441Z,23.10
2019-02-28T11:58:22.468Z,23.00
2019-02-28T11:59:24.089Z,21.20
2019-02-28T12:00:22.497Z,22.50
2019-02-28T12:01:22.517Z,23.90
2019-02-28T12:02:22.537Z,22.00
2019-02-28T12:03:22.557Z,23.80
2019-02-28T12:04:22.575Z,23.20
2019-02-28T12:05:22.598Z,23.70
2019-02-28T12:06:25.505Z,23.00
2019-02-28T12:07:22.631Z,23.10
2019-02-28T12:08:22.651Z,23.50
2019-02-28T12:09:22.669Z,22.40
2019-02-28T12:10:22.691Z,23.40
2019-02-28T12:11:22.707Z,22.80
2019-02-28T12:12:22.728Z,22.20
2019-02-28T12:13:22.746Z,22.30
2019-02-28T12:14:22.764Z,22.70
2019-02-28T12:15:22.787Z,22.60
2019-02-28T12:16:22.803Z,21.80
2019-02-28T12:17:25.528Z,24.60
2019-02-28T12:18:22.840Z,23.90
2019-02-28T12:19:22.860Z,22.20
2019-02-28T12:20:26.312Z,22.70
2019-02-28T12:21:22.900Z,23.20
2019-02-28T12:22:22.920Z,23.70
2019-02-28T12:23:23.494Z,23.30
2019-02-28T12:24:22.961Z,23.00
2019-02-28T12:25:22.974Z,21.90
2019-02-28T12:26:22.997Z,22.40
2019-02-28T12:27:24.386Z,23.00
2019-02-28T12:28:23.040Z,22.20
2019-02-28T12:29:23.062Z,22.30
2019-02-28T12:30:25.163Z,22.30
2019-02-28T12:31:23.090Z,22.40
2019-02-28T12:32:23.108Z,22.80
2019-02-28T12:33:23.460Z,23.30
2019-02-28T12:34:23.152Z,21.30
2019-02-28T12:35:23.165Z,22.90
2019-02-28T12:36:23.186Z,21.80
2019-02-28T12:37:23.204Z,22.10
2019-02-28T12:38:25.903Z,23.10
2019-02-28T12:39:23.706Z,23.20
2019-02-28T12:40:23.264Z,22.60
2019-02-28T12:41:25.258Z,22.20
2019-02-28T12:42:23.304Z,22.20
2019-02-28T12:43:23.320Z,22.50
2019-02-28T12:44:23.340Z,22.90
2019-02-28T12:45:24.401Z,22.00
2019-02-28T12:46:23.379Z,21.90
2019-02-28T12:47:23.401Z,23.90
2019-02-28T12:48:23.419Z,21.20
2019-02-28T12:49:25.284Z,20.90
2019-02-28T12:50:23.457Z,22.40
2019-02-28T12:51:23.477Z,21.30
2019-02-28T12:52:23.496Z,22.40
2019-02-28T12:53:25.233Z,22.00
2019-02-28T12:54:23.537Z,23.10
2019-02-28T12:55:23.553Z,22.30
2019-02-28T12:56:23.574Z,21.80
2019-02-28T12:57:23.595Z,22.50
2019-02-28T12:58:23.612Z,21.90
2019-02-28T12:59:23.639Z,22.20
2019-02-28T13:00:24.114Z,22.40
2019-02-28T13:01:23.673Z,22.10